Airfield :
LOGIN :

Register | Disclaimer

   EN    FR    IT 

 










Legend :    VFR   Marginal VFR   IFR   Intensive IFR   Very Intensive IFR
Visi :
Ceiling :
>= 8 km
>= 3000ft
5 to 8 km
1000 to 3000 ft
1500m to 5 km
500 to 1000 ft
800 to 1500m
200 to 500 ft
< 800m
< 200 ft
Symbols :   Thunderstorms  Fog  Heavy snow  Heavy precipitations  Wind > 20 kt
SIGMETs :     Misc.  Thunderstorms  Icing  Turbulence  Mountain Waves  Volcanic Ashes







- Airport Elevation : 117 ft
- IATA code : NWI
- Download approach charts


EGSH - Norwich

CURRENT METAR :
  • 270250Z AUTO 08008KT 050V110 9999 NCD 15/13 Q1018

EXPIRED METARs :
  • 270220Z AUTO 06007KT 9999 NCD 14/12 Q1018
  • 270150Z AUTO 04006KT 9999 NCD 14/12 Q1019
  • 270120Z AUTO 04005KT 9999 NCD 14/12 Q1019
  • 270050Z AUTO 04004KT 9999 NCD 14/12 Q1019
  • 270020Z AUTO 02004KT 9999 NCD 14/12 Q1019

Expired Forecast.
ATIS : +44 1603 420 640
No reported NOTAMs for that airfield.
1 SIGMET reported for the London FIR (EGTT) :
 
Embedded thunderstorms
EGTT SIGMET 01 VALID 270230/270630 EGRR
EGTT LONDON FIR EMBD TS OBS WI N5233 E00039 - N5140 E00042 - N5156 W00359 - N5250 W00404 - N5233 E00039 TOP FL370 MOV NW 20KT WKN=



MET'MAP, your aeronautical weather chart ! - Copyright ORBIFLY December 2007 - Disclaimer

ORBIFLY MET'MAP TEAM :

Programming & Development : Alexandra Zaïnal
Concept & Development : Baudouin d'Aumeries
Co-Development & Prog : Marc-Olivier Méhu
Technical & hardware support : Manuel Goepfert

Contact : metmap@orbifly.com




SOURCES & CREDITS :

   NOAA